»·PEaware :: N3141P KBFL-KAPC

N3141P :: KBFL-KAPC

FLIGHT INFORMATION

Flight Status: Arrived
Operator: Privately registered:
United States
More flights under this callsign
Pilot: Andrew N. (12823)
Aircraft: Unknown
(DA62)
More flights by this aircraft type
Origin: KBFL Meadows
United States
Destination: KAPC Napa Co
United States
More flights between these airports :: More routes between these airports
Route: +MEADO3 EHF V248 AVE V107 OAK SAU
File this flight plan on PilotEdge
Remarks:
Altitude:
(Current/Filed)
20,000ft
Speed:
(Current/Filed)
190kts
Departed: 09-Oct-18 06:21 PM
Arrived: 09-Oct-18 07:59 PM
Distance/Time
Traveled:
227nm/1:38
Distance/Time
To Go:
Arrived

Flight Plot

Page will automatically refresh every two minutes.

Flight plan parsing failed; only flown route is shown


Map Options




Map Legend


Flown Route
Filed Route
Departure Airport
Arrival Airport
Navaid (VOR, NDB)
Fix

Horizontal Profiles

Position Reports

Time Latitude Longitude Heading Altitude Ground
Speed
09-Oct-18 18:05 35.429368 -119.046104 226 497ft 0kts
09-Oct-18 18:06 35.429368 -119.046104 226 497ft 0kts
09-Oct-18 18:07 35.429368 -119.046104 226 497ft 0kts
09-Oct-18 18:08 35.429368 -119.046104 226 497ft 0kts
09-Oct-18 18:09 35.429368 -119.046104 226 497ft 0kts
09-Oct-18 18:10 35.429368 -119.046104 226 497ft 0kts
09-Oct-18 18:11 35.429368 -119.046104 226 497ft 0kts
09-Oct-18 18:12 35.429368 -119.046105 226 497ft 0kts
09-Oct-18 18:13 35.429368 -119.046105 226 497ft 0kts
09-Oct-18 18:14 35.429368 -119.046105 226 497ft 0kts
09-Oct-18 18:15 35.429368 -119.046105 226 497ft 0kts
09-Oct-18 18:16 35.429368 -119.046105 226 497ft 0kts
09-Oct-18 18:17 35.429368 -119.046105 226 497ft 0kts
09-Oct-18 18:18 35.429368 -119.046105 226 497ft 0kts
09-Oct-18 18:19 35.429368 -119.046105 226 497ft 0kts
09-Oct-18 18:20 35.429368 -119.046105 226 497ft 0kts
09-Oct-18 18:21 35.428306 -119.047153 159 497ft 14kts
09-Oct-18 18:22 35.425457 -119.045127 277 497ft 10kts
09-Oct-18 18:23 35.435126 -119.057864 314 676ft 99kts
09-Oct-18 18:24 35.453806 -119.080756 321 2015ft 92kts
09-Oct-18 18:25 35.473425 -119.101897 327 3016ft 117kts
09-Oct-18 18:26 35.506009 -119.131338 314 3012ft 163kts
09-Oct-18 18:27 35.507120 -119.183654 263 3615ft 147kts
09-Oct-18 18:28 35.510451 -119.230625 285 4601ft 135kts
09-Oct-18 18:29 35.518667 -119.275202 285 5449ft 139kts
09-Oct-18 18:30 35.526906 -119.320540 286 6482ft 132kts
09-Oct-18 18:31 35.534661 -119.363356 287 7667ft 127kts
09-Oct-18 18:32 35.542223 -119.404745 288 8853ft 124kts
09-Oct-18 18:33 35.549778 -119.445574 289 10045ft 122kts
09-Oct-18 18:34 35.557186 -119.485694 289 11230ft 121kts
09-Oct-18 18:35 35.564471 -119.525200 290 12410ft 118kts
09-Oct-18 18:36 35.571423 -119.563005 290 13535ft 115kts
09-Oct-18 18:37 35.578709 -119.602435 290 14539ft 121kts
09-Oct-18 18:38 35.586204 -119.643241 290 15535ft 123kts
09-Oct-18 18:39 35.593730 -119.684240 290 16446ft 128kts
09-Oct-18 18:40 35.601796 -119.728318 290 17224ft 132kts
09-Oct-18 18:41 35.609679 -119.771699 290 18014ft 127kts
09-Oct-18 18:42 35.617186 -119.813048 290 18796ft 122kts
09-Oct-18 18:43 35.624378 -119.852760 291 19579ft 116kts
09-Oct-18 18:44 35.631628 -119.892264 290 20042ft 132kts
09-Oct-18 18:45 35.640503 -119.941008 289 20045ft 157kts
09-Oct-18 18:46 35.660522 -119.986532 327 20055ft 159kts
09-Oct-18 18:47 35.698085 -120.015611 328 20049ft 160kts
09-Oct-18 18:48 35.735874 -120.043761 329 20040ft 159kts
09-Oct-18 18:49 35.773507 -120.071623 329 20034ft 158kts
09-Oct-18 18:50 35.810798 -120.099226 329 20030ft 158kts
09-Oct-18 18:51 35.848454 -120.127126 329 20029ft 158kts
09-Oct-18 18:52 35.885763 -120.154797 329 20027ft 158kts
09-Oct-18 18:53 35.923300 -120.182669 329 20023ft 158kts
09-Oct-18 18:54 35.959720 -120.209741 329 20016ft 158kts
09-Oct-18 18:55 35.999705 -120.239461 329 19393ft 180kts
09-Oct-18 18:56 36.042895 -120.271597 329 18675ft 187kts
09-Oct-18 18:57 36.085791 -120.303583 330 17977ft 189kts
09-Oct-18 18:58 36.130319 -120.336822 330 17281ft 190kts
09-Oct-18 18:59 36.175376 -120.370512 330 16591ft 191kts
09-Oct-18 19:00 36.212105 -120.398013 330 16032ft 192kts
09-Oct-18 19:01 36.250320 -120.426704 330 15968ft 177kts
09-Oct-18 19:02 36.291040 -120.457293 330 15962ft 171kts
09-Oct-18 19:03 36.331242 -120.487900 329 15955ft 170kts
09-Oct-18 19:04 36.371303 -120.518166 329 15958ft 170kts
09-Oct-18 19:05 36.411391 -120.548390 329 15959ft 170kts
09-Oct-18 19:06 36.450751 -120.578088 329 15957ft 170kts
09-Oct-18 19:07 36.490618 -120.608205 329 16017ft 168kts
09-Oct-18 19:08 36.529915 -120.637926 329 16016ft 169kts
09-Oct-18 19:09 36.569654 -120.668020 329 16016ft 169kts
09-Oct-18 19:10 36.610018 -120.698620 329 16012ft 170kts
09-Oct-18 19:11 36.650271 -120.729176 329 16010ft 170kts
09-Oct-18 19:12 36.690515 -120.759764 329 16019ft 169kts
09-Oct-18 19:13 36.727356 -120.795525 314 16029ft 171kts
09-Oct-18 19:14 36.758897 -120.839596 314 16042ft 171kts
09-Oct-18 19:15 36.788361 -120.880976 314 16047ft 141kts
09-Oct-18 19:16 36.814130 -120.917125 314 16070ft 140kts
09-Oct-18 19:17 36.839821 -120.953224 314 16085ft 139kts
09-Oct-18 19:18 36.865557 -120.989450 315 16089ft 139kts
09-Oct-18 19:19 36.891510 -121.026000 315 16091ft 145kts
09-Oct-18 19:20 36.918248 -121.063717 315 16088ft 146kts
09-Oct-18 19:21 36.945112 -121.101641 316 15365ft 144kts
09-Oct-18 19:22 36.971416 -121.138811 316 14354ft 144kts
09-Oct-18 19:23 36.997757 -121.176068 316 13341ft 144kts
09-Oct-18 19:24 37.024147 -121.213445 316 12325ft 143kts
09-Oct-18 19:25 37.050304 -121.250554 316 12015ft 140kts
09-Oct-18 19:26 37.075804 -121.286744 315 12017ft 141kts
09-Oct-18 19:27 37.101587 -121.323385 315 12017ft 148kts
09-Oct-18 19:28 37.126790 -121.359261 314 12016ft 143kts
09-Oct-18 19:29 37.152609 -121.396058 314 12010ft 143kts
09-Oct-18 19:30 37.178316 -121.432726 314 12006ft 149kts
09-Oct-18 19:31 37.206886 -121.473468 314 11998ft 166kts
09-Oct-18 19:32 37.232171 -121.509621 314 11990ft 170kts
09-Oct-18 19:33 37.267870 -121.560731 314 11978ft 172kts
09-Oct-18 19:34 37.299081 -121.605435 313 10736ft 167kts
09-Oct-18 19:35 37.328989 -121.648361 313 9242ft 163kts
09-Oct-18 19:36 37.358325 -121.686551 343 7992ft 151kts
09-Oct-18 19:37 37.394799 -121.691743 352 7263ft 163kts
09-Oct-18 19:38 37.442617 -121.697228 354 6471ft 152kts
09-Oct-18 19:39 37.479606 -121.703138 352 6503ft 170kts
09-Oct-18 19:40 37.527489 -121.710917 352 6500ft 176kts
09-Oct-18 19:41 37.575993 -121.710015 2 6500ft 176kts
09-Oct-18 19:42 37.624970 -121.707124 2 6500ft 176kts
09-Oct-18 19:43 37.674098 -121.705303 343 5699ft 179kts
09-Oct-18 19:44 37.712138 -121.742280 319 4519ft 177kts
09-Oct-18 19:45 37.749426 -121.781830 319 4499ft 174kts
09-Oct-18 19:46 37.790140 -121.813565 331 4499ft 174kts
09-Oct-18 19:47 37.828935 -121.839966 331 4499ft 174kts
09-Oct-18 19:48 37.871354 -121.868834 331 4499ft 174kts
09-Oct-18 19:49 37.909698 -121.905224 315 4089ft 172kts
09-Oct-18 19:50 37.943235 -121.946457 315 3011ft 173kts
09-Oct-18 19:51 37.976453 -121.987384 315 2995ft 157kts
09-Oct-18 19:52 38.006734 -122.024755 315 2999ft 149kts
09-Oct-18 19:53 38.036198 -122.061175 315 2999ft 148kts
09-Oct-18 19:54 38.065509 -122.097431 315 2999ft 148kts
09-Oct-18 19:55 38.094587 -122.133424 315 2443ft 145kts
09-Oct-18 19:56 38.131651 -122.165840 331 1999ft 139kts
09-Oct-18 19:57 38.159936 -122.185246 336 1928ft 140kts
09-Oct-18 19:58 38.196303 -122.202137 343 1817ft 143kts
09-Oct-18 19:59 38.213458 -122.243187 279 583ft 120kts
09-Oct-18 20:00 38.209716 -122.277613 257 22ft 42kts
09-Oct-18 20:01 38.212450 -122.277786 26 23ft 19kts
09-Oct-18 20:02 38.216698 -122.274611 66 28ft 12kts
09-Oct-18 20:03 38.216195 -122.274198 245 29ft 0kts
09-Oct-18 20:04 38.216195 -122.274198 245 29ft 0kts
09-Oct-18 20:05 38.216195 -122.274198 245 29ft 0kts
09-Oct-18 20:06 38.216195 -122.274198 245 29ft 0kts
09-Oct-18 20:07 38.216195 -122.274198 245 29ft 0kts
09-Oct-18 20:08 38.216195 -122.274198 245 29ft 0kts
09-Oct-18 20:09 38.216195 -122.274198 245 29ft 0kts
09-Oct-18 20:10 38.216195 -122.274198 245 29ft 0kts
09-Oct-18 20:11 38.216195 -122.274198 245 29ft 0kts
09-Oct-18 20:12 38.216195 -122.274198 245 29ft 0kts
09-Oct-18 20:13 38.216194 -122.274198 245 29ft 0kts
09-Oct-18 20:14 38.217156 -122.274833 162 28ft 10kts
09-Oct-18 20:15 38.213591 -122.277044 206 25ft 21kts

Navigation Log

Ident Type
Flight plan parsing failed, navigation log unavailable